Time;durP1;ratioP1;P1;durP2;ratioP2;P2;SDS_P1;SDS_P2;PMS_P1;PMS_P2;Temp;Humidity;BMP_temperature;BMP_pressure;BME280_temperature;BME280_humidity;BME280_pressure;Samples;Min_cycle;Max_cycle;Signal;HPM_P1;HPM_P2
2023/12/31 00:01:07;;;;;;;;;;;8.30;99.90;;;;;;5048403;28;19929;-33
2023/12/31 00:03:33;;;;;;;;;;;8.30;99.90;;;;;;5055494;28;20023;-34
2023/12/31 00:06:00;;;;;;;;;;;8.30;99.90;;;;;;5052075;28;20351;-34
2023/12/31 00:08:27;;;;;;;;;;;8.20;99.90;;;;;;5053865;28;19924;-35
2023/12/31 00:10:53;;;;;;;;;;;8.20;99.90;;;;;;5051680;28;20383;-38
2023/12/31 00:13:20;;;;;;;;;;;8.20;99.90;;;;;;5059003;28;19978;-34
2023/12/31 00:15:46;;;;;;;;;;;8.30;99.90;;;;;;5068867;28;19924;-34
2023/12/31 00:18:14;;;;;;;;;;;8.20;99.90;;;;;;5053386;28;19924;-34
2023/12/31 00:20:41;;;;;;;;;;;8.10;99.90;;;;;;5051600;28;19924;-35
2023/12/31 00:23:11;;;;;;;;;;;8.20;99.90;;;;;;5062381;28;20331;-33
2023/12/31 00:25:38;;;;;;;;;;;8.20;99.90;;;;;;5060289;28;20038;-35
2023/12/31 00:28:05;;;;;;;;;;;8.20;99.90;;;;;;5053171;28;19986;-34
2023/12/31 00:30:31;;;;;;;;;;;8.20;99.90;;;;;;5057250;28;19928;-34
2023/12/31 00:32:58;;;;;;;;;;;8.20;99.90;;;;;;5054894;28;20338;-35
2023/12/31 00:35:26;;;;;;;;;;;8.10;99.90;;;;;;5051975;28;19925;-35
2023/12/31 00:37:52;;;;;;;;;;;8.20;99.90;;;;;;5063437;28;19947;-33
2023/12/31 00:40:19;;;;;;;;;;;8.20;99.90;;;;;;5052022;28;19999;-33
2023/12/31 00:42:46;;;;;;;;;;;8.20;99.90;;;;;;5051558;28;19975;-34
2023/12/31 00:45:12;;;;;;;;;;;8.20;99.90;;;;;;5050576;28;19937;-34
2023/12/31 00:47:39;;;;;;;;;;;8.20;99.90;;;;;;5045072;28;19933;-32
2023/12/31 00:50:06;;;;;;;;;;;8.20;99.90;;;;;;5037028;28;19929;-34
2023/12/31 00:52:34;;;;;;;;;;;8.20;99.90;;;;;;5034018;28;20443;-34
2023/12/31 00:55:01;;;;;;;;;;;8.20;99.90;;;;;;5033065;28;20430;-33
2023/12/31 00:57:29;;;;;;;;;;;8.20;99.90;;;;;;5034188;28;20329;-34
2023/12/31 00:59:55;;;;;;;;;;;8.20;99.90;;;;;;5044060;28;19928;-33
2023/12/31 01:02:22;;;;;;;;;;;8.20;99.90;;;;;;5033931;28;19979;-33
2023/12/31 01:04:49;;;;;;;;;;;8.20;99.90;;;;;;5047522;28;20304;-36
2023/12/31 01:07:17;;;;;;;;;;;8.20;99.90;;;;;;5046403;28;19978;-33
2023/12/31 01:09:45;;;;;;;;;;;8.20;99.90;;;;;;5050379;28;19929;-32
2023/12/31 01:12:11;;;;;;;;;;;8.20;99.90;;;;;;5052838;28;20339;-35
2023/12/31 01:14:38;;;;;;;;;;;8.20;99.90;;;;;;5052454;28;20017;-33
2023/12/31 01:17:04;;;;;;;;;;;8.10;99.90;;;;;;5051712;28;19924;-34
2023/12/31 01:19:31;;;;;;;;;;;8.10;99.90;;;;;;5051420;28;20099;-34
2023/12/31 01:21:58;;;;;;;;;;;8.10;99.90;;;;;;5051476;28;20329;-34
2023/12/31 01:24:24;;;;;;;;;;;8.10;99.90;;;;;;5051738;28;19963;-35
2023/12/31 01:26:52;;;;;;;;;;;8.10;99.90;;;;;;5052746;28;19925;-34
2023/12/31 01:29:19;;;;;;;;;;;8.00;99.90;;;;;;5049974;28;19963;-35
2023/12/31 01:31:46;;;;;;;;;;;8.00;99.90;;;;;;5050836;28;19928;-33
2023/12/31 01:34:13;;;;;;;;;;;8.00;99.90;;;;;;5050266;28;19936;-34
2023/12/31 01:36:39;;;;;;;;;;;8.10;99.90;;;;;;5051617;28;19936;-33
2023/12/31 01:39:07;;;;;;;;;;;8.00;99.90;;;;;;5049934;28;19936;-33
2023/12/31 01:41:33;;;;;;;;;;;8.00;99.90;;;;;;5044900;28;19925;-35
2023/12/31 01:44:03;;;;;;;;;;;8.10;99.90;;;;;;5046553;28;20002;-34
2023/12/31 01:46:30;;;;;;;;;;;8.00;99.90;;;;;;5044237;28;19931;-34
2023/12/31 01:48:56;;;;;;;;;;;8.10;99.90;;;;;;5046381;28;19971;-34
2023/12/31 01:51:23;;;;;;;;;;;8.20;99.90;;;;;;5046288;28;20380;-34
2023/12/31 01:53:50;;;;;;;;;;;8.20;99.90;;;;;;5045621;28;20006;-34
2023/12/31 01:56:16;;;;;;;;;;;8.20;99.90;;;;;;5044055;28;19925;-35
2023/12/31 01:58:43;;;;;;;;;;;8.10;99.90;;;;;;5045272;28;19979;-35
2023/12/31 02:01:11;;;;;;;;;;;8.10;99.90;;;;;;5044659;28;20447;-34
2023/12/31 02:03:37;;;;;;;;;;;8.10;99.90;;;;;;5047605;28;20464;-33
2023/12/31 02:06:04;;;;;;;;;;;8.10;99.90;;;;;;5044561;28;19925;-33
2023/12/31 02:08:31;;;;;;;;;;;8.10;99.90;;;;;;5045364;28;19952;-33
2023/12/31 02:10:58;;;;;;;;;;;8.10;99.90;;;;;;5046156;28;19987;-34
2023/12/31 02:13:24;;;;;;;;;;;8.10;99.90;;;;;;5045444;28;19959;-34
2023/12/31 02:15:52;;;;;;;;;;;8.10;99.90;;;;;;5046666;28;19925;-33
2023/12/31 02:18:20;;;;;;;;;;;8.10;99.90;;;;;;5045021;28;20010;-33
2023/12/31 02:20:47;;;;;;;;;;;8.20;99.90;;;;;;5043363;28;19925;-33
2023/12/31 02:23:13;;;;;;;;;;;8.10;99.90;;;;;;5048504;28;19987;-33
2023/12/31 02:25:42;;;;;;;;;;;8.10;99.90;;;;;;5045619;28;20044;-33
2023/12/31 02:28:10;;;;;;;;;;;8.10;99.90;;;;;;5044884;28;19929;-32
2023/12/31 02:30:36;;;;;;;;;;;8.10;99.90;;;;;;5045975;28;19971;-32
2023/12/31 02:33:03;;;;;;;;;;;8.10;99.90;;;;;;5045308;28;19935;-33
2023/12/31 02:35:30;;;;;;;;;;;8.10;99.90;;;;;;5044261;28;19991;-34
2023/12/31 02:37:56;;;;;;;;;;;8.10;99.90;;;;;;5049563;28;20009;-34
2023/12/31 02:40:23;;;;;;;;;;;8.10;99.90;;;;;;5049011;28;19987;-35
2023/12/31 02:42:49;;;;;;;;;;;8.10;99.90;;;;;;5032062;28;20372;-33
2023/12/31 02:45:17;;;;;;;;;;;8.10;99.90;;;;;;5049135;28;19979;-34
2023/12/31 02:47:44;;;;;;;;;;;8.10;99.90;;;;;;5049258;28;20387;-34
2023/12/31 02:50:11;;;;;;;;;;;8.10;99.90;;;;;;5050588;28;19971;-33
2023/12/31 02:52:38;;;;;;;;;;;8.10;99.90;;;;;;5049629;28;19937;-35
2023/12/31 02:55:04;;;;;;;;;;;8.10;99.90;;;;;;5046670;28;19971;-35
2023/12/31 02:57:31;;;;;;;;;;;8.10;99.90;;;;;;5047835;28;20343;-33
2023/12/31 02:59:58;;;;;;;;;;;8.10;99.90;;;;;;5043702;28;20368;-33
2023/12/31 03:02:26;;;;;;;;;;;8.10;99.90;;;;;;5044522;28;20438;-33
2023/12/31 03:04:52;;;;;;;;;;;8.10;99.90;;;;;;5045725;28;19929;-34
2023/12/31 03:07:19;;;;;;;;;;;8.00;99.90;;;;;;5046534;28;19984;-33
2023/12/31 03:09:46;;;;;;;;;;;8.00;99.90;;;;;;5045437;28;19978;-34
2023/12/31 03:12:12;;;;;;;;;;;8.00;99.90;;;;;;5046223;28;19929;-33
2023/12/31 03:14:39;;;;;;;;;;;8.00;99.90;;;;;;5044206;28;19979;-34
2023/12/31 03:17:06;;;;;;;;;;;8.00;99.90;;;;;;5044597;28;19994;-35
2023/12/31 03:19:36;;;;;;;;;;;8.00;99.90;;;;;;5046432;28;19931;-34
2023/12/31 03:22:03;;;;;;;;;;;8.00;99.90;;;;;;5049801;28;19975;-34
2023/12/31 03:24:30;;;;;;;;;;;8.10;99.90;;;;;;5048242;28;19928;-34
2023/12/31 03:26:57;;;;;;;;;;;8.10;99.90;;;;;;5047732;28;19928;-34
2023/12/31 03:29:24;;;;;;;;;;;8.00;99.90;;;;;;5048966;28;20015;-33
2023/12/31 03:31:50;;;;;;;;;;;8.00;99.90;;;;;;5050274;28;19970;-33
2023/12/31 03:34:17;;;;;;;;;;;8.10;99.90;;;;;;5047758;28;19971;-33
2023/12/31 03:36:46;;;;;;;;;;;8.00;99.90;;;;;;5049535;28;19979;-34
2023/12/31 03:39:13;;;;;;;;;;;8.00;99.90;;;;;;5048175;28;19924;-33
2023/12/31 03:41:39;;;;;;;;;;;8.00;99.90;;;;;;5047772;28;20277;-32
2023/12/31 03:44:06;;;;;;;;;;;8.10;99.90;;;;;;5050023;28;19972;-33
2023/12/31 03:46:33;;;;;;;;;;;8.10;99.90;;;;;;5045262;28;20029;-34
2023/12/31 03:48:59;;;;;;;;;;;8.10;99.90;;;;;;5046838;28;19987;-33
2023/12/31 03:51:26;;;;;;;;;;;8.10;99.90;;;;;;5047454;28;20064;-33
2023/12/31 03:53:54;;;;;;;;;;;8.20;99.90;;;;;;5046983;28;19970;-34
2023/12/31 03:56:20;;;;;;;;;;;8.20;99.90;;;;;;5047629;28;19937;-33
2023/12/31 03:58:47;;;;;;;;;;;8.20;99.90;;;;;;5047551;28;20238;-33
2023/12/31 04:01:14;;;;;;;;;;;8.20;99.90;;;;;;5048462;28;19979;-34
2023/12/31 04:03:40;;;;;;;;;;;8.20;99.90;;;;;;5050630;28;19986;-33
2023/12/31 04:06:07;;;;;;;;;;;8.20;99.90;;;;;;5048628;28;20420;-34
2023/12/31 04:08:34;;;;;;;;;;;8.20;99.90;;;;;;5048403;28;19939;-34
2023/12/31 04:11:02;;;;;;;;;;;8.30;99.90;;;;;;5049314;28;19929;-36
2023/12/31 04:13:29;;;;;;;;;;;8.20;99.90;;;;;;5048183;28;20469;-34
2023/12/31 04:15:56;;;;;;;;;;;8.20;99.90;;;;;;5047922;28;20392;-34
2023/12/31 04:18:22;;;;;;;;;;;8.20;99.90;;;;;;5050003;28;19933;-32
2023/12/31 04:20:49;;;;;;;;;;;8.20;99.90;;;;;;5047896;28;20018;-37
2023/12/31 04:23:16;;;;;;;;;;;8.20;99.90;;;;;;5048656;28;19986;-33
2023/12/31 04:25:42;;;;;;;;;;;8.20;99.90;;;;;;5050402;28;19998;-33
2023/12/31 04:28:10;;;;;;;;;;;8.20;99.90;;;;;;5048981;28;19925;-34
2023/12/31 04:30:40;;;;;;;;;;;8.20;99.90;;;;;;5047662;28;19931;-34
2023/12/31 04:33:07;;;;;;;;;;;8.20;99.90;;;;;;5046455;28;19933;-33
2023/12/31 04:35:33;;;;;;;;;;;8.20;99.90;;;;;;5050191;28;20331;-34
2023/12/31 04:38:00;;;;;;;;;;;8.20;99.90;;;;;;5053791;28;19924;-34
2023/12/31 04:40:26;;;;;;;;;;;8.20;99.90;;;;;;5052760;28;19924;-35
2023/12/31 04:42:53;;;;;;;;;;;8.20;99.90;;;;;;5051484;28;19960;-34
2023/12/31 04:45:21;;;;;;;;;;;8.20;99.90;;;;;;5051735;28;19929;-34
2023/12/31 04:47:48;;;;;;;;;;;8.20;99.90;;;;;;5052665;28;19924;-34
2023/12/31 04:50:14;;;;;;;;;;;8.20;99.90;;;;;;5051672;28;20446;-34
2023/12/31 04:52:41;;;;;;;;;;;8.20;99.90;;;;;;5051559;28;19925;-35
2023/12/31 04:55:08;;;;;;;;;;;8.20;99.90;;;;;;5051448;28;19925;-34
2023/12/31 04:57:34;;;;;;;;;;;8.20;99.90;;;;;;5049016;28;20368;-35
2023/12/31 05:00:01;;;;;;;;;;;8.20;99.90;;;;;;5045060;28;20388;-33
2023/12/31 05:02:29;;;;;;;;;;;8.10;99.90;;;;;;5045244;28;19951;-33
2023/12/31 05:04:56;;;;;;;;;;;8.10;99.90;;;;;;5049557;28;19978;-34
2023/12/31 05:07:22;;;;;;;;;;;8.10;99.90;;;;;;5044152;28;19941;-34
2023/12/31 05:09:49;;;;;;;;;;;8.10;99.90;;;;;;5047270;28;19924;-32
2023/12/31 05:12:16;;;;;;;;;;;8.10;99.90;;;;;;5046768;28;19960;-33
2023/12/31 05:14:43;;;;;;;;;;;8.10;99.90;;;;;;5050156;28;19928;-33
2023/12/31 05:17:09;;;;;;;;;;;8.10;99.90;;;;;;5047234;28;19939;-33
2023/12/31 05:19:38;;;;;;;;;;;8.10;99.90;;;;;;5048634;28;19928;-35
2023/12/31 05:22:05;;;;;;;;;;;8.10;99.90;;;;;;5049917;28;20346;-33
2023/12/31 05:24:31;;;;;;;;;;;8.20;99.90;;;;;;5047198;28;19929;-34
2023/12/31 05:26:58;;;;;;;;;;;8.20;99.90;;;;;;5048510;28;19986;-35
2023/12/31 05:29:25;;;;;;;;;;;8.10;99.90;;;;;;5045820;28;20015;-33
2023/12/31 05:31:51;;;;;;;;;;;8.10;99.90;;;;;;5047495;28;19975;-34
2023/12/31 05:34:18;;;;;;;;;;;8.10;99.90;;;;;;5043575;28;20397;-32
2023/12/31 05:36:46;;;;;;;;;;;8.10;99.90;;;;;;5044179;28;19965;-33
2023/12/31 05:39:12;;;;;;;;;;;8.10;99.90;;;;;;5048071;28;19974;-34
2023/12/31 05:41:39;;;;;;;;;;;8.10;99.90;;;;;;5047819;28;20373;-35
2023/12/31 05:44:06;;;;;;;;;;;8.10;99.90;;;;;;5045821;28;20438;-37
2023/12/31 05:46:32;;;;;;;;;;;8.10;99.90;;;;;;5046655;28;19974;-34
2023/12/31 05:48:59;;;;;;;;;;;8.00;99.90;;;;;;5047689;28;19978;-34
2023/12/31 05:51:26;;;;;;;;;;;8.20;99.90;;;;;;5046715;28;20038;-34
2023/12/31 05:53:54;;;;;;;;;;;8.00;99.90;;;;;;5048898;28;20434;-34
2023/12/31 05:56:20;;;;;;;;;;;8.00;99.90;;;;;;5046095;28;19978;-35
2023/12/31 05:58:48;;;;;;;;;;;8.10;99.90;;;;;;5046150;28;19955;-35
2023/12/31 06:01:14;;;;;;;;;;;8.10;99.90;;;;;;5045418;28;19928;-33
2023/12/31 06:03:41;;;;;;;;;;;8.00;99.90;;;;;;5047674;28;20030;-35
2023/12/31 06:06:08;;;;;;;;;;;8.10;99.90;;;;;;5046340;28;19928;-33
2023/12/31 06:08:35;;;;;;;;;;;8.10;99.90;;;;;;5040124;28;19956;-33
2023/12/31 06:11:03;;;;;;;;;;;8.00;99.90;;;;;;5040289;28;19971;-34
2023/12/31 06:13:29;;;;;;;;;;;8.10;99.90;;;;;;5038063;28;19925;-34
2023/12/31 06:15:56;;;;;;;;;;;8.10;99.90;;;;;;5043488;28;19929;-34
2023/12/31 06:18:23;;;;;;;;;;;8.00;99.90;;;;;;5045701;28;19924;-33
2023/12/31 06:20:49;;;;;;;;;;;8.00;99.90;;;;;;5045471;28;19964;-35
2023/12/31 06:23:16;;;;;;;;;;;8.00;99.90;;;;;;5045987;28;19925;-33
2023/12/31 06:25:42;;;;;;;;;;;8.00;99.90;;;;;;5047525;28;19971;-35
2023/12/31 06:28:10;;;;;;;;;;;8.00;99.90;;;;;;5044535;28;19969;-34
2023/12/31 06:30:38;;;;;;;;;;;8.00;99.90;;;;;;5043243;28;19925;-36
2023/12/31 06:33:04;;;;;;;;;;;8.00;99.90;;;;;;5045676;28;19925;-34
2023/12/31 06:35:31;;;;;;;;;;;8.00;99.90;;;;;;5047880;28;19924;-33
2023/12/31 06:37:58;;;;;;;;;;;8.00;99.90;;;;;;5051430;28;19978;-35
2023/12/31 06:40:24;;;;;;;;;;;8.00;99.90;;;;;;5049926;28;19925;-33
2023/12/31 06:42:51;;;;;;;;;;;8.00;99.90;;;;;;5052101;28;19998;-33
2023/12/31 06:45:19;;;;;;;;;;;8.00;99.90;;;;;;5051363;28;20384;-34
2023/12/31 06:47:48;;;;;;;;;;;8.00;99.90;;;;;;5050349;28;19925;-33
2023/12/31 06:50:15;;;;;;;;;;;8.10;99.90;;;;;;5050545;28;19966;-33
2023/12/31 06:52:42;;;;;;;;;;;8.00;99.90;;;;;;5051920;28;19924;-34
2023/12/31 06:55:10;;;;;;;;;;;8.10;99.90;;;;;;5053506;28;20392;-32
2023/12/31 06:57:37;;;;;;;;;;;8.10;99.90;;;;;;5054915;28;20291;-33
2023/12/31 07:00:04;;;;;;;;;;;8.10;99.90;;;;;;5047717;28;20015;-34
2023/12/31 07:02:32;;;;;;;;;;;8.10;99.90;;;;;;5047486;28;19925;-34
2023/12/31 07:04:58;;;;;;;;;;;8.10;99.90;;;;;;5049605;28;19979;-34
2023/12/31 07:07:25;;;;;;;;;;;8.10;99.90;;;;;;5047538;28;20026;-33
2023/12/31 07:09:52;;;;;;;;;;;8.10;99.90;;;;;;5049544;28;20066;-34
2023/12/31 07:12:19;;;;;;;;;;;8.00;99.90;;;;;;5048851;28;19925;-34
2023/12/31 07:14:46;;;;;;;;;;;8.10;99.90;;;;;;5048810;28;20371;-34
2023/12/31 07:17:12;;;;;;;;;;;8.10;99.90;;;;;;5049905;28;20427;-33
2023/12/31 07:19:41;;;;;;;;;;;8.10;99.90;;;;;;5051976;28;20364;-34
2023/12/31 07:22:07;;;;;;;;;;;8.10;99.90;;;;;;5055230;28;20380;-33
2023/12/31 07:24:34;;;;;;;;;;;8.10;99.90;;;;;;5050659;28;20741;-33
2023/12/31 07:27:00;;;;;;;;;;;8.10;99.90;;;;;;5044192;28;20308;-35
2023/12/31 07:29:27;;;;;;;;;;;8.10;99.90;;;;;;5047291;28;19965;-34
2023/12/31 07:31:54;;;;;;;;;;;8.10;99.90;;;;;;5046954;28;19983;-35
2023/12/31 07:34:20;;;;;;;;;;;8.10;99.90;;;;;;5048744;28;20483;-33
2023/12/31 07:36:48;;;;;;;;;;;8.20;99.90;;;;;;5046759;28;19964;-35
2023/12/31 07:39:15;;;;;;;;;;;8.20;99.90;;;;;;5048695;28;20441;-34
2023/12/31 07:41:41;;;;;;;;;;;8.20;99.90;;;;;;5046354;28;20447;-32
2023/12/31 07:44:08;;;;;;;;;;;8.30;99.90;;;;;;5048174;28;19978;-35
2023/12/31 07:46:35;;;;;;;;;;;8.40;99.90;;;;;;5048994;28;19951;-34
2023/12/31 07:49:01;;;;;;;;;;;8.40;99.90;;;;;;5048290;28;19964;-33
2023/12/31 07:51:28;;;;;;;;;;;8.40;99.90;;;;;;5048696;28;19932;-35
2023/12/31 07:53:56;;;;;;;;;;;8.50;99.90;;;;;;5044498;28;19967;-34
2023/12/31 07:56:23;;;;;;;;;;;8.50;99.90;;;;;;5047355;28;20000;-35
2023/12/31 07:58:49;;;;;;;;;;;8.60;99.90;;;;;;5048079;28;19986;-34
2023/12/31 08:01:16;;;;;;;;;;;8.50;99.90;;;;;;5047287;28;19978;-32
2023/12/31 08:03:43;;;;;;;;;;;8.50;99.90;;;;;;5050469;28;19925;-34
2023/12/31 08:06:09;;;;;;;;;;;8.60;99.90;;;;;;5043720;28;20433;-34
2023/12/31 08:08:36;;;;;;;;;;;8.60;99.90;;;;;;5047337;28;20573;-32
2023/12/31 08:11:04;;;;;;;;;;;8.60;99.90;;;;;;5049505;28;19925;-34
2023/12/31 08:13:31;;;;;;;;;;;8.60;99.90;;;;;;5047365;28;20002;-32
2023/12/31 08:15:57;;;;;;;;;;;8.60;99.90;;;;;;5045932;28;19925;-34
2023/12/31 08:18:24;;;;;;;;;;;8.60;99.90;;;;;;5046182;28;19929;-33
2023/12/31 08:20:54;;;;;;;;;;;8.60;99.90;;;;;;5044878;28;19979;-34
2023/12/31 08:23:20;;;;;;;;;;;8.60;99.90;;;;;;5048547;28;19978;-34
2023/12/31 08:25:47;;;;;;;;;;;8.60;99.90;;;;;;5048388;28;19929;-33
2023/12/31 08:28:15;;;;;;;;;;;8.60;99.90;;;;;;5047367;28;19979;-34
2023/12/31 08:30:41;;;;;;;;;;;8.60;99.90;;;;;;5046909;28;19928;-34
2023/12/31 08:33:08;;;;;;;;;;;8.60;99.90;;;;;;5048293;28;19929;-33
2023/12/31 08:35:35;;;;;;;;;;;8.60;99.90;;;;;;5048503;28;20273;-32
2023/12/31 08:38:01;;;;;;;;;;;8.60;99.90;;;;;;5053121;28;20244;-33
2023/12/31 08:40:28;;;;;;;;;;;8.70;99.90;;;;;;5052445;28;19929;-34
2023/12/31 08:42:55;;;;;;;;;;;8.70;99.90;;;;;;5049038;28;19933;-35
2023/12/31 08:45:23;;;;;;;;;;;8.70;99.90;;;;;;5052223;28;19925;-36
2023/12/31 08:47:50;;;;;;;;;;;8.70;99.90;;;;;;5051883;28;19979;-35
2023/12/31 08:50:16;;;;;;;;;;;8.70;99.90;;;;;;5053084;28;19924;-32
2023/12/31 08:52:43;;;;;;;;;;;8.70;99.90;;;;;;5044968;28;19986;-33
2023/12/31 08:55:10;;;;;;;;;;;8.80;99.90;;;;;;5045845;28;20336;-34
2023/12/31 08:57:37;;;;;;;;;;;8.80;99.90;;;;;;5047129;28;20026;-34
2023/12/31 09:00:04;;;;;;;;;;;8.80;99.90;;;;;;5044967;28;20006;-32
2023/12/31 09:02:32;;;;;;;;;;;8.80;99.90;;;;;;5044779;28;19946;-33
2023/12/31 09:04:59;;;;;;;;;;;8.80;99.90;;;;;;5051460;28;19925;-33
2023/12/31 09:07:26;;;;;;;;;;;8.90;99.90;;;;;;5051139;28;19924;-34
2023/12/31 09:09:52;;;;;;;;;;;8.90;99.90;;;;;;5043381;28;19932;-34
2023/12/31 09:12:19;;;;;;;;;;;8.90;99.90;;;;;;5036802;28;19925;-35
2023/12/31 09:14:46;;;;;;;;;;;8.90;99.90;;;;;;5052316;28;19924;-35
2023/12/31 09:17:12;;;;;;;;;;;8.90;99.90;;;;;;5038318;28;19933;-34
2023/12/31 09:19:41;;;;;;;;;;;9.00;99.90;;;;;;5050088;28;19925;-33
2023/12/31 09:22:08;;;;;;;;;;;9.00;99.90;;;;;;5051526;28;19924;-33
2023/12/31 09:24:35;;;;;;;;;;;9.00;99.90;;;;;;5048017;28;20287;-35
2023/12/31 09:27:01;;;;;;;;;;;9.00;99.90;;;;;;5048969;28;19964;-34
2023/12/31 09:29:29;;;;;;;;;;;9.00;99.90;;;;;;5050591;28;19925;-34
2023/12/31 09:31:56;;;;;;;;;;;9.10;99.90;;;;;;5048959;28;19924;-35
2023/12/31 09:34:22;;;;;;;;;;;9.10;99.90;;;;;;5048312;28;19986;-33
2023/12/31 09:36:51;;;;;;;;;;;9.10;99.90;;;;;;5050906;28;20327;-33
2023/12/31 09:39:17;;;;;;;;;;;9.10;99.90;;;;;;5051345;28;19925;-34
2023/12/31 09:41:45;;;;;;;;;;;9.10;99.90;;;;;;5047212;28;20444;-34
2023/12/31 09:44:11;;;;;;;;;;;9.10;99.90;;;;;;5047602;28;19925;-35
2023/12/31 09:46:38;;;;;;;;;;;9.20;99.90;;;;;;5050139;28;19924;-34
2023/12/31 09:49:05;;;;;;;;;;;9.20;99.90;;;;;;5048635;28;19935;-35
2023/12/31 09:51:32;;;;;;;;;;;9.20;99.90;;;;;;5038922;28;20011;-33
2023/12/31 09:54:00;;;;;;;;;;;9.20;99.90;;;;;;5043873;28;19925;-34
2023/12/31 09:56:27;;;;;;;;;;;9.20;99.90;;;;;;5042876;28;19925;-36
2023/12/31 09:58:54;;;;;;;;;;;9.20;99.90;;;;;;5048352;28;19925;-33
2023/12/31 10:01:20;;;;;;;;;;;9.20;99.90;;;;;;5044852;28;19932;-35
2023/12/31 10:03:47;;;;;;;;;;;9.20;99.90;;;;;;5035618;28;19960;-34
2023/12/31 10:06:13;;;;;;;;;;;9.20;99.90;;;;;;5045107;28;20396;-33
2023/12/31 10:08:39;;;;;;;;;;;9.20;99.90;;;;;;5047219;28;20285;-34
2023/12/31 10:11:07;;;;;;;;;;;9.30;99.90;;;;;;5042822;28;19978;-33
2023/12/31 10:13:34;;;;;;;;;;;9.30;99.90;;;;;;5043000;28;19935;-34
2023/12/31 10:16:01;;;;;;;;;;;9.30;99.90;;;;;;5049353;28;19925;-33
2023/12/31 10:18:29;;;;;;;;;;;9.40;99.90;;;;;;5042817;28;19943;-34
2023/12/31 10:20:56;;;;;;;;;;;9.40;99.90;;;;;;5045538;28;19924;-32
2023/12/31 10:23:22;;;;;;;;;;;9.40;99.90;;;;;;5037974;28;19959;-33
2023/12/31 10:25:49;;;;;;;;;;;9.50;99.90;;;;;;5038479;28;20434;-33
2023/12/31 10:28:17;;;;;;;;;;;9.50;99.90;;;;;;5038933;28;19944;-33
2023/12/31 10:30:44;;;;;;;;;;;9.50;99.90;;;;;;5045787;28;19955;-33
2023/12/31 10:33:17;;;;;;;;;;;9.60;99.90;;;;;;5050320;28;20316;-36
2023/12/31 10:35:45;;;;;;;;;;;9.60;99.90;;;;;;5042495;28;19994;-34
2023/12/31 10:38:12;;;;;;;;;;;9.60;99.90;;;;;;5046929;28;19978;-37
2023/12/31 10:40:41;;;;;;;;;;;9.70;99.90;;;;;;5044922;28;20666;-34
2023/12/31 10:43:08;;;;;;;;;;;9.70;99.90;;;;;;5046380;28;19951;-34
2023/12/31 10:45:36;;;;;;;;;;;9.70;99.90;;;;;;5046845;28;19924;-35
2023/12/31 10:48:03;;;;;;;;;;;9.80;99.90;;;;;;5045150;28;19925;-35
2023/12/31 10:50:30;;;;;;;;;;;9.80;99.90;;;;;;5047047;28;19925;-35
2023/12/31 10:52:57;;;;;;;;;;;9.80;99.90;;;;;;5047759;28;19983;-33
2023/12/31 10:55:24;;;;;;;;;;;9.80;99.90;;;;;;5043555;28;19925;-34
2023/12/31 10:57:51;;;;;;;;;;;9.90;99.90;;;;;;5048498;28;19924;-33
2023/12/31 11:00:19;;;;;;;;;;;9.80;99.90;;;;;;5053462;28;20315;-32
2023/12/31 11:02:50;;;;;;;;;;;9.90;99.90;;;;;;5043432;28;21318;-31
2023/12/31 11:05:17;;;;;;;;;;;9.90;99.90;;;;;;5043934;28;19925;-33
2023/12/31 11:07:43;;;;;;;;;;;9.90;99.90;;;;;;5042080;28;19959;-33
2023/12/31 11:10:10;;;;;;;;;;;9.80;99.90;;;;;;5040293;28;20000;-33
2023/12/31 11:12:37;;;;;;;;;;;9.80;99.90;;;;;;5040483;28;20427;-34
2023/12/31 11:15:05;;;;;;;;;;;9.80;99.90;;;;;;5037289;28;19931;-34
2023/12/31 11:17:46;;;;;;;;;;;9.80;99.90;;;;;;5044185;28;20019;-34
2023/12/31 11:20:18;;;;;;;;;;;9.80;99.90;;;;;;5039221;28;19991;-32
2023/12/31 11:22:47;;;;;;;;;;;9.80;99.90;;;;;;5041391;28;19925;-33
2023/12/31 11:25:16;;;;;;;;;;;9.70;99.90;;;;;;5042773;28;19929;-33
2023/12/31 11:27:43;;;;;;;;;;;9.70;99.90;;;;;;5041764;28;19929;-32
2023/12/31 11:30:09;;;;;;;;;;;9.70;99.90;;;;;;5044157;28;20438;-32
2023/12/31 11:32:36;;;;;;;;;;;9.70;99.90;;;;;;5037598;28;19946;-31
2023/12/31 11:35:05;;;;;;;;;;;9.60;99.90;;;;;;5040780;28;19935;-34
2023/12/31 11:37:37;;;;;;;;;;;9.50;99.90;;;;;;5041968;28;20322;-33
2023/12/31 11:40:05;;;;;;;;;;;9.50;99.90;;;;;;5037963;28;19965;-32
2023/12/31 11:42:32;;;;;;;;;;;9.40;99.90;;;;;;5055321;28;20295;-33
2023/12/31 11:45:00;;;;;;;;;;;9.30;99.90;;;;;;5051283;28;20307;-33
2023/12/31 11:47:26;;;;;;;;;;;9.20;99.90;;;;;;5050554;28;19935;-34
2023/12/31 11:49:53;;;;;;;;;;;9.10;99.90;;;;;;5046222;28;20599;-34
2023/12/31 11:52:20;;;;;;;;;;;9.00;99.90;;;;;;5047335;28;20342;-33
2023/12/31 11:54:48;;;;;;;;;;;8.90;99.90;;;;;;5043326;28;19989;-34
2023/12/31 11:57:17;;;;;;;;;;;8.80;99.90;;;;;;5048367;28;19932;-34
2023/12/31 11:59:44;;;;;;;;;;;8.70;99.90;;;;;;5043294;28;19961;-34
2023/12/31 12:02:10;;;;;;;;;;;8.60;99.90;;;;;;5043591;28;19959;-34
2023/12/31 12:04:37;;;;;;;;;;;8.50;99.90;;;;;;5048018;28;19978;-33
2023/12/31 12:07:04;;;;;;;;;;;8.50;99.90;;;;;;5051873;28;19955;-34
2023/12/31 12:09:31;;;;;;;;;;;8.40;99.90;;;;;;5048933;28;19928;-34
2023/12/31 12:12:02;;;;;;;;;;;8.40;99.90;;;;;;5051512;28;19925;-34
2023/12/31 12:14:29;;;;;;;;;;;8.30;99.90;;;;;;5041076;28;19936;-35
2023/12/31 12:16:56;;;;;;;;;;;8.40;99.90;;;;;;5044740;28;19951;-34
2023/12/31 12:19:23;;;;;;;;;;;8.50;99.90;;;;;;5044135;28;20464;-34
2023/12/31 12:21:49;;;;;;;;;;;8.60;99.90;;;;;;5046604;28;19995;-34
2023/12/31 12:24:17;;;;;;;;;;;8.70;99.90;;;;;;5052695;28;19928;-35
2023/12/31 12:26:43;;;;;;;;;;;8.80;99.90;;;;;;5050220;28;19924;-34
2023/12/31 12:29:11;;;;;;;;;;;8.90;99.90;;;;;;5051860;28;19928;-33
2023/12/31 12:31:38;;;;;;;;;;;9.00;99.90;;;;;;5046004;28;19978;-34
2023/12/31 12:34:05;;;;;;;;;;;9.10;99.90;;;;;;5046343;28;19928;-35
2023/12/31 12:36:31;;;;;;;;;;;9.10;99.90;;;;;;5052032;28;19970;-36
2023/12/31 12:39:02;;;;;;;;;;;9.10;99.90;;;;;;5052408;28;19925;-33
2023/12/31 12:41:30;;;;;;;;;;;9.10;99.90;;;;;;5053111;28;20307;-35
2023/12/31 12:43:57;;;;;;;;;;;9.10;99.90;;;;;;5052418;28;20300;-34
2023/12/31 12:46:27;;;;;;;;;;;9.00;99.90;;;;;;5051984;28;20015;-37
2023/12/31 12:48:54;;;;;;;;;;;9.00;99.90;;;;;;5052799;28;19925;-34
2023/12/31 12:51:20;;;;;;;;;;;9.00;99.90;;;;;;5052072;28;20070;-36
2023/12/31 12:53:47;;;;;;;;;;;8.90;99.90;;;;;;5052794;28;20392;-35
2023/12/31 12:56:14;;;;;;;;;;;9.00;99.90;;;;;;5053115;28;19975;-35
2023/12/31 12:58:40;;;;;;;;;;;8.90;99.90;;;;;;5052696;28;20430;-35
2023/12/31 13:01:07;;;;;;;;;;;8.90;99.90;;;;;;5054029;28;19971;-35
2023/12/31 13:03:35;;;;;;;;;;;8.90;99.90;;;;;;5053047;28;19990;-33
2023/12/31 13:06:02;;;;;;;;;;;8.90;99.90;;;;;;5052721;28;19925;-35
2023/12/31 13:08:28;;;;;;;;;;;8.80;99.90;;;;;;5053811;28;20273;-37
2023/12/31 13:10:55;;;;;;;;;;;8.80;99.90;;;;;;5052377;28;19972;-34
2023/12/31 13:13:22;;;;;;;;;;;8.80;99.90;;;;;;5053827;28;19978;-34
2023/12/31 13:15:48;;;;;;;;;;;8.70;99.90;;;;;;5052581;28;19925;-34
2023/12/31 13:18:15;;;;;;;;;;;8.60;99.90;;;;;;5052126;28;19924;-34
2023/12/31 13:20:43;;;;;;;;;;;8.50;99.90;;;;;;5051801;28;19960;-34
2023/12/31 13:23:10;;;;;;;;;;;8.40;99.90;;;;;;5052773;28;19929;-33
2023/12/31 13:25:36;;;;;;;;;;;8.40;99.90;;;;;;5052417;28;19924;-34
2023/12/31 13:28:03;;;;;;;;;;;8.30;99.90;;;;;;5050591;28;20427;-33
2023/12/31 13:30:30;;;;;;;;;;;8.30;99.90;;;;;;5053663;28;19975;-35
2023/12/31 13:32:57;;;;;;;;;;;8.20;99.90;;;;;;5053436;28;19978;-34
2023/12/31 13:35:23;;;;;;;;;;;8.20;99.90;;;;;;5052328;28;19991;-34
2023/12/31 13:37:51;;;;;;;;;;;8.10;99.90;;;;;;5050560;28;19929;-34
2023/12/31 13:40:18;;;;;;;;;;;8.10;99.90;;;;;;5052269;28;19928;-34
2023/12/31 13:42:45;;;;;;;;;;;8.10;99.90;;;;;;5052084;28;20010;-34
2023/12/31 13:45:11;;;;;;;;;;;8.10;99.90;;;;;;5051579;28;19972;-34
2023/12/31 13:47:38;;;;;;;;;;;8.10;99.90;;;;;;5051836;28;19925;-34
2023/12/31 13:50:05;;;;;;;;;;;8.20;99.90;;;;;;5052067;28;19991;-33
2023/12/31 13:52:33;;;;;;;;;;;8.10;99.90;;;;;;5052867;28;19924;-33
2023/12/31 13:55:01;;;;;;;;;;;8.10;99.90;;;;;;5052246;28;19940;-33
2023/12/31 13:57:27;;;;;;;;;;;8.00;99.90;;;;;;5050027;28;19970;-34
2023/12/31 13:59:54;;;;;;;;;;;8.00;99.90;;;;;;5051415;28;19925;-33
2023/12/31 14:02:21;;;;;;;;;;;8.00;99.90;;;;;;5051861;28;19925;-34
2023/12/31 14:04:47;;;;;;;;;;;8.00;99.90;;;;;;5051130;28;19936;-34
2023/12/31 14:07:15;;;;;;;;;;;8.00;99.90;;;;;;5051121;28;20419;-34
2023/12/31 14:09:42;;;;;;;;;;;8.00;99.90;;;;;;5051510;28;19929;-34
2023/12/31 14:12:14;;;;;;;;;;;8.00;99.90;;;;;;5052862;28;20293;-35
2023/12/31 14:14:40;;;;;;;;;;;8.00;99.90;;;;;;5051967;28;20284;-34
2023/12/31 14:17:07;;;;;;;;;;;8.10;99.90;;;;;;5052705;28;19929;-34
2023/12/31 14:19:34;;;;;;;;;;;8.10;99.90;;;;;;5050971;28;19951;-34
2023/12/31 14:22:00;;;;;;;;;;;8.10;99.90;;;;;;5051999;28;19925;-35
2023/12/31 14:24:28;;;;;;;;;;;8.10;99.90;;;;;;5051886;28;19974;-35
2023/12/31 14:26:55;;;;;;;;;;;8.10;99.90;;;;;;5051238;28;20418;-33
2023/12/31 14:29:23;;;;;;;;;;;8.20;99.90;;;;;;5050416;28;20228;-34